sensor_id;sensor_type;location;lat;lon;timestamp;P1;durP1;ratioP1;P2;durP2;ratioP2
4521;SDS011;2273;48.464;11.926;2023-03-21T00:00:57;15.80;;;7.57;;
4521;SDS011;2273;48.464;11.926;2023-03-21T00:03:24;9.57;;;7.37;;
4521;SDS011;2273;48.464;11.926;2023-03-21T00:05:50;10.10;;;7.80;;
4521;SDS011;2273;48.464;11.926;2023-03-21T00:08:18;13.20;;;8.20;;
4521;SDS011;2273;48.464;11.926;2023-03-21T00:10:44;9.93;;;6.90;;
4521;SDS011;2273;48.464;11.926;2023-03-21T00:13:10;12.20;;;8.30;;
4521;SDS011;2273;48.464;11.926;2023-03-21T00:15:37;12.63;;;9.03;;
4521;SDS011;2273;48.464;11.926;2023-03-21T00:18:17;13.27;;;7.93;;
4521;SDS011;2273;48.464;11.926;2023-03-21T00:20:54;8.50;;;6.70;;
4521;SDS011;2273;48.464;11.926;2023-03-21T00:23:22;8.50;;;7.60;;
4521;SDS011;2273;48.464;11.926;2023-03-21T00:25:48;9.70;;;7.43;;
4521;SDS011;2273;48.464;11.926;2023-03-21T00:28:14;12.60;;;7.80;;
4521;SDS011;2273;48.464;11.926;2023-03-21T00:30:40;9.97;;;7.63;;
4521;SDS011;2273;48.464;11.926;2023-03-21T00:33:05;12.10;;;7.93;;
4521;SDS011;2273;48.464;11.926;2023-03-21T00:35:32;9.63;;;7.20;;
4521;SDS011;2273;48.464;11.926;2023-03-21T00:37:58;17.50;;;8.40;;
4521;SDS011;2273;48.464;11.926;2023-03-21T00:40:23;10.40;;;7.57;;
4521;SDS011;2273;48.464;11.926;2023-03-21T00:42:49;9.50;;;7.40;;
4521;SDS011;2273;48.464;11.926;2023-03-21T00:45:14;13.07;;;7.60;;
4521;SDS011;2273;48.464;11.926;2023-03-21T00:47:41;9.93;;;7.83;;
4521;SDS011;2273;48.464;11.926;2023-03-21T00:50:07;10.63;;;7.67;;
4521;SDS011;2273;48.464;11.926;2023-03-21T00:52:33;10.10;;;7.33;;
4521;SDS011;2273;48.464;11.926;2023-03-21T00:54:59;19.83;;;7.60;;
4521;SDS011;2273;48.464;11.926;2023-03-21T00:57:26;9.80;;;6.63;;
4521;SDS011;2273;48.464;11.926;2023-03-21T00:59:52;12.07;;;8.37;;
4521;SDS011;2273;48.464;11.926;2023-03-21T01:02:17;11.60;;;7.90;;
4521;SDS011;2273;48.464;11.926;2023-03-21T01:04:47;8.73;;;6.70;;
4521;SDS011;2273;48.464;11.926;2023-03-21T01:07:14;9.73;;;7.20;;
4521;SDS011;2273;48.464;11.926;2023-03-21T01:09:39;9.50;;;7.30;;
4521;SDS011;2273;48.464;11.926;2023-03-21T01:12:04;15.53;;;7.13;;
4521;SDS011;2273;48.464;11.926;2023-03-21T01:14:30;10.60;;;8.10;;
4521;SDS011;2273;48.464;11.926;2023-03-21T01:16:55;8.50;;;6.30;;
4521;SDS011;2273;48.464;11.926;2023-03-21T01:19:22;8.57;;;6.20;;
4521;SDS011;2273;48.464;11.926;2023-03-21T01:21:52;11.23;;;7.17;;
4521;SDS011;2273;48.464;11.926;2023-03-21T01:24:18;10.80;;;7.17;;
4521;SDS011;2273;48.464;11.926;2023-03-21T01:26:43;10.77;;;6.63;;
4521;SDS011;2273;48.464;11.926;2023-03-21T01:29:09;10.90;;;7.50;;
4521;SDS011;2273;48.464;11.926;2023-03-21T01:31:35;9.90;;;6.77;;
4521;SDS011;2273;48.464;11.926;2023-03-21T01:34:01;10.23;;;7.90;;
4521;SDS011;2273;48.464;11.926;2023-03-21T01:36:26;11.30;;;7.27;;
4521;SDS011;2273;48.464;11.926;2023-03-21T01:39:00;9.10;;;7.20;;
4521;SDS011;2273;48.464;11.926;2023-03-21T01:41:29;11.47;;;8.10;;
4521;SDS011;2273;48.464;11.926;2023-03-21T01:43:57;10.00;;;7.00;;
4521;SDS011;2273;48.464;11.926;2023-03-21T01:49:45;9.27;;;6.60;;
4521;SDS011;2273;48.464;11.926;2023-03-21T01:52:27;12.70;;;9.53;;
4521;SDS011;2273;48.464;11.926;2023-03-21T01:54:56;15.10;;;10.40;;
4521;SDS011;2273;48.464;11.926;2023-03-21T01:57:30;18.30;;;10.60;;
4521;SDS011;2273;48.464;11.926;2023-03-21T02:00:00;14.03;;;9.50;;
4521;SDS011;2273;48.464;11.926;2023-03-21T02:02:45;16.27;;;9.77;;
4521;SDS011;2273;48.464;11.926;2023-03-21T02:05:50;15.63;;;8.60;;
4521;SDS011;2273;48.464;11.926;2023-03-21T02:08:20;10.03;;;7.90;;
4521;SDS011;2273;48.464;11.926;2023-03-21T02:10:48;11.93;;;7.80;;
4521;SDS011;2273;48.464;11.926;2023-03-21T02:13:23;12.97;;;9.17;;
4521;SDS011;2273;48.464;11.926;2023-03-21T02:15:57;12.43;;;7.90;;
4521;SDS011;2273;48.464;11.926;2023-03-21T02:21:15;13.17;;;8.70;;
4521;SDS011;2273;48.464;11.926;2023-03-21T02:27:15;9.97;;;7.37;;
4521;SDS011;2273;48.464;11.926;2023-03-21T02:29:55;13.50;;;7.93;;
4521;SDS011;2273;48.464;11.926;2023-03-21T02:41:00;11.90;;;8.30;;
4521;SDS011;2273;48.464;11.926;2023-03-21T02:46:21;10.37;;;7.73;;
4521;SDS011;2273;48.464;11.926;2023-03-21T02:49:00;9.33;;;6.87;;
4521;SDS011;2273;48.464;11.926;2023-03-21T02:51:31;11.20;;;7.10;;
4521;SDS011;2273;48.464;11.926;2023-03-21T02:54:10;14.03;;;7.03;;
4521;SDS011;2273;48.464;11.926;2023-03-21T02:56:37;10.80;;;8.17;;
4521;SDS011;2273;48.464;11.926;2023-03-21T02:59:04;15.20;;;8.73;;
4521;SDS011;2273;48.464;11.926;2023-03-21T03:01:32;10.97;;;8.10;;
4521;SDS011;2273;48.464;11.926;2023-03-21T03:03:58;11.13;;;7.30;;
4521;SDS011;2273;48.464;11.926;2023-03-21T03:06:40;12.10;;;8.00;;
4521;SDS011;2273;48.464;11.926;2023-03-21T03:18:20;9.67;;;7.10;;
4521;SDS011;2273;48.464;11.926;2023-03-21T03:23:46;11.60;;;7.60;;
4521;SDS011;2273;48.464;11.926;2023-03-21T03:26:36;9.07;;;7.23;;
4521;SDS011;2273;48.464;11.926;2023-03-21T03:29:08;9.93;;;7.63;;
4521;SDS011;2273;48.464;11.926;2023-03-21T03:31:38;12.70;;;8.17;;
4521;SDS011;2273;48.464;11.926;2023-03-21T03:34:07;13.23;;;8.30;;
4521;SDS011;2273;48.464;11.926;2023-03-21T03:36:38;12.80;;;8.90;;
4521;SDS011;2273;48.464;11.926;2023-03-21T03:39:11;13.93;;;7.83;;
4521;SDS011;2273;48.464;11.926;2023-03-21T03:41:55;12.53;;;8.47;;
4521;SDS011;2273;48.464;11.926;2023-03-21T03:44:28;14.73;;;8.03;;
4521;SDS011;2273;48.464;11.926;2023-03-21T03:49:37;10.20;;;7.03;;
4521;SDS011;2273;48.464;11.926;2023-03-21T03:52:11;10.23;;;7.50;;
4521;SDS011;2273;48.464;11.926;2023-03-21T03:54:50;9.10;;;7.00;;
4521;SDS011;2273;48.464;11.926;2023-03-21T03:57:18;13.10;;;8.30;;
4521;SDS011;2273;48.464;11.926;2023-03-21T03:59:44;11.50;;;8.10;;
4521;SDS011;2273;48.464;11.926;2023-03-21T04:02:26;11.30;;;8.67;;
4521;SDS011;2273;48.464;11.926;2023-03-21T04:04:53;9.80;;;7.17;;
4521;SDS011;2273;48.464;11.926;2023-03-21T04:07:21;12.60;;;8.67;;
4521;SDS011;2273;48.464;11.926;2023-03-21T04:09:49;10.90;;;7.53;;
4521;SDS011;2273;48.464;11.926;2023-03-21T04:12:18;10.10;;;7.67;;
4521;SDS011;2273;48.464;11.926;2023-03-21T04:15:09;11.80;;;8.53;;
4521;SDS011;2273;48.464;11.926;2023-03-21T04:17:37;12.43;;;8.63;;
4521;SDS011;2273;48.464;11.926;2023-03-21T04:20:04;15.43;;;9.73;;
4521;SDS011;2273;48.464;11.926;2023-03-21T04:22:31;13.77;;;10.03;;
4521;SDS011;2273;48.464;11.926;2023-03-21T04:24:57;14.30;;;9.33;;
4521;SDS011;2273;48.464;11.926;2023-03-21T04:27:23;14.43;;;9.83;;
4521;SDS011;2273;48.464;11.926;2023-03-21T04:30:09;11.37;;;8.40;;
4521;SDS011;2273;48.464;11.926;2023-03-21T04:32:48;12.23;;;8.77;;
4521;SDS011;2273;48.464;11.926;2023-03-21T04:35:18;23.13;;;12.80;;
4521;SDS011;2273;48.464;11.926;2023-03-21T04:37:44;29.20;;;16.10;;
4521;SDS011;2273;48.464;11.926;2023-03-21T04:40:13;26.00;;;15.13;;
4521;SDS011;2273;48.464;11.926;2023-03-21T04:42:42;21.93;;;14.30;;
4521;SDS011;2273;48.464;11.926;2023-03-21T04:45:08;24.37;;;13.07;;
4521;SDS011;2273;48.464;11.926;2023-03-21T04:47:33;24.40;;;13.40;;
4521;SDS011;2273;48.464;11.926;2023-03-21T04:49:59;18.10;;;11.17;;
4521;SDS011;2273;48.464;11.926;2023-03-21T04:52:24;21.43;;;12.37;;
4521;SDS011;2273;48.464;11.926;2023-03-21T04:54:50;17.87;;;12.23;;
4521;SDS011;2273;48.464;11.926;2023-03-21T04:57:18;15.03;;;10.20;;
4521;SDS011;2273;48.464;11.926;2023-03-21T04:59:43;15.77;;;11.30;;
4521;SDS011;2273;48.464;11.926;2023-03-21T05:02:10;17.13;;;11.40;;
4521;SDS011;2273;48.464;11.926;2023-03-21T05:04:36;16.90;;;11.07;;
4521;SDS011;2273;48.464;11.926;2023-03-21T05:07:01;18.20;;;10.43;;
4521;SDS011;2273;48.464;11.926;2023-03-21T05:09:27;17.77;;;10.80;;
4521;SDS011;2273;48.464;11.926;2023-03-21T05:11:52;15.93;;;10.53;;
4521;SDS011;2273;48.464;11.926;2023-03-21T05:14:20;14.70;;;10.77;;
4521;SDS011;2273;48.464;11.926;2023-03-21T05:16:47;16.20;;;9.50;;
4521;SDS011;2273;48.464;11.926;2023-03-21T05:19:17;14.07;;;9.87;;
4521;SDS011;2273;48.464;11.926;2023-03-21T05:21:46;15.60;;;10.70;;
4521;SDS011;2273;48.464;11.926;2023-03-21T05:24:16;14.83;;;9.90;;
4521;SDS011;2273;48.464;11.926;2023-03-21T05:26:44;17.27;;;9.93;;
4521;SDS011;2273;48.464;11.926;2023-03-21T05:29:15;14.70;;;9.93;;
4521;SDS011;2273;48.464;11.926;2023-03-21T05:31:47;14.33;;;10.33;;
4521;SDS011;2273;48.464;11.926;2023-03-21T05:34:13;15.13;;;10.53;;
4521;SDS011;2273;48.464;11.926;2023-03-21T05:36:40;13.20;;;9.97;;
4521;SDS011;2273;48.464;11.926;2023-03-21T05:39:07;13.27;;;10.50;;
4521;SDS011;2273;48.464;11.926;2023-03-21T05:41:37;13.87;;;9.87;;
4521;SDS011;2273;48.464;11.926;2023-03-21T05:44:04;14.47;;;10.40;;
4521;SDS011;2273;48.464;11.926;2023-03-21T05:46:29;17.80;;;10.47;;
4521;SDS011;2273;48.464;11.926;2023-03-21T05:48:55;18.03;;;11.33;;
4521;SDS011;2273;48.464;11.926;2023-03-21T05:51:22;14.13;;;10.77;;
4521;SDS011;2273;48.464;11.926;2023-03-21T05:53:47;13.30;;;10.60;;
4521;SDS011;2273;48.464;11.926;2023-03-21T05:56:14;15.03;;;10.87;;
4521;SDS011;2273;48.464;11.926;2023-03-21T05:58:47;12.90;;;10.03;;
4521;SDS011;2273;48.464;11.926;2023-03-21T06:01:13;12.63;;;8.80;;
4521;SDS011;2273;48.464;11.926;2023-03-21T06:03:43;24.27;;;10.63;;
4521;SDS011;2273;48.464;11.926;2023-03-21T06:06:14;14.37;;;10.10;;
4521;SDS011;2273;48.464;11.926;2023-03-21T06:08:54;14.33;;;9.40;;
4521;SDS011;2273;48.464;11.926;2023-03-21T06:11:30;11.80;;;8.00;;
4521;SDS011;2273;48.464;11.926;2023-03-21T06:14:14;10.73;;;9.03;;
4521;SDS011;2273;48.464;11.926;2023-03-21T06:16:41;10.50;;;7.40;;
4521;SDS011;2273;48.464;11.926;2023-03-21T06:19:07;13.30;;;8.57;;
4521;SDS011;2273;48.464;11.926;2023-03-21T06:21:51;13.23;;;9.27;;
4521;SDS011;2273;48.464;11.926;2023-03-21T06:24:16;11.10;;;8.00;;
4521;SDS011;2273;48.464;11.926;2023-03-21T06:26:42;9.83;;;8.07;;
4521;SDS011;2273;48.464;11.926;2023-03-21T06:29:08;10.37;;;8.80;;
4521;SDS011;2273;48.464;11.926;2023-03-21T06:31:34;14.27;;;7.97;;
4521;SDS011;2273;48.464;11.926;2023-03-21T06:34:01;12.60;;;9.13;;
4521;SDS011;2273;48.464;11.926;2023-03-21T06:36:27;13.30;;;9.77;;
4521;SDS011;2273;48.464;11.926;2023-03-21T06:38:53;10.47;;;8.37;;
4521;SDS011;2273;48.464;11.926;2023-03-21T06:41:18;12.67;;;9.07;;
4521;SDS011;2273;48.464;11.926;2023-03-21T06:43:54;10.83;;;8.40;;
4521;SDS011;2273;48.464;11.926;2023-03-21T06:46:20;15.30;;;9.50;;
4521;SDS011;2273;48.464;11.926;2023-03-21T06:48:46;10.97;;;8.40;;
4521;SDS011;2273;48.464;11.926;2023-03-21T06:51:12;16.53;;;8.67;;
4521;SDS011;2273;48.464;11.926;2023-03-21T06:53:47;19.93;;;9.33;;
4521;SDS011;2273;48.464;11.926;2023-03-21T06:56:19;17.00;;;9.40;;
4521;SDS011;2273;48.464;11.926;2023-03-21T06:58:44;15.10;;;8.53;;
4521;SDS011;2273;48.464;11.926;2023-03-21T07:01:20;16.37;;;9.40;;
4521;SDS011;2273;48.464;11.926;2023-03-21T07:03:56;17.50;;;7.90;;
4521;SDS011;2273;48.464;11.926;2023-03-21T07:06:24;11.60;;;7.90;;
4521;SDS011;2273;48.464;11.926;2023-03-21T07:08:54;11.20;;;8.90;;
4521;SDS011;2273;48.464;11.926;2023-03-21T07:11:21;13.77;;;8.43;;
4521;SDS011;2273;48.464;11.926;2023-03-21T07:13:48;10.93;;;8.60;;
4521;SDS011;2273;48.464;11.926;2023-03-21T07:16:14;11.50;;;8.90;;
4521;SDS011;2273;48.464;11.926;2023-03-21T07:18:42;13.23;;;10.47;;
4521;SDS011;2273;48.464;11.926;2023-03-21T07:21:10;12.33;;;9.07;;
4521;SDS011;2273;48.464;11.926;2023-03-21T07:23:36;11.13;;;8.80;;
4521;SDS011;2273;48.464;11.926;2023-03-21T07:26:02;10.93;;;8.93;;
4521;SDS011;2273;48.464;11.926;2023-03-21T07:28:29;11.00;;;8.67;;
4521;SDS011;2273;48.464;11.926;2023-03-21T07:30:57;11.13;;;8.70;;
4521;SDS011;2273;48.464;11.926;2023-03-21T07:33:24;9.87;;;8.83;;
4521;SDS011;2273;48.464;11.926;2023-03-21T07:35:52;13.00;;;9.43;;
4521;SDS011;2273;48.464;11.926;2023-03-21T07:38:18;11.80;;;10.03;;
4521;SDS011;2273;48.464;11.926;2023-03-21T07:40:45;14.17;;;9.20;;
4521;SDS011;2273;48.464;11.926;2023-03-21T07:43:11;13.83;;;9.17;;
4521;SDS011;2273;48.464;11.926;2023-03-21T07:45:40;14.60;;;9.00;;
4521;SDS011;2273;48.464;11.926;2023-03-21T07:48:07;14.80;;;9.40;;
4521;SDS011;2273;48.464;11.926;2023-03-21T07:50:33;14.90;;;9.83;;
4521;SDS011;2273;48.464;11.926;2023-03-21T07:52:59;20.50;;;9.97;;
4521;SDS011;2273;48.464;11.926;2023-03-21T07:55:24;12.00;;;9.97;;
4521;SDS011;2273;48.464;11.926;2023-03-21T07:57:50;11.90;;;9.23;;
4521;SDS011;2273;48.464;11.926;2023-03-21T08:00:17;14.63;;;9.57;;
4521;SDS011;2273;48.464;11.926;2023-03-21T08:02:50;11.50;;;9.20;;
4521;SDS011;2273;48.464;11.926;2023-03-21T08:05:22;12.47;;;9.67;;
4521;SDS011;2273;48.464;11.926;2023-03-21T08:07:55;10.47;;;8.33;;
4521;SDS011;2273;48.464;11.926;2023-03-21T08:10:20;13.17;;;8.90;;
4521;SDS011;2273;48.464;11.926;2023-03-21T08:12:46;14.50;;;9.63;;
4521;SDS011;2273;48.464;11.926;2023-03-21T08:15:12;14.20;;;9.20;;
4521;SDS011;2273;48.464;11.926;2023-03-21T08:17:38;19.57;;;11.13;;
4521;SDS011;2273;48.464;11.926;2023-03-21T08:20:04;14.87;;;9.63;;
4521;SDS011;2273;48.464;11.926;2023-03-21T08:22:32;16.17;;;9.50;;
4521;SDS011;2273;48.464;11.926;2023-03-21T08:24:58;15.70;;;11.67;;
4521;SDS011;2273;48.464;11.926;2023-03-21T08:27:23;16.47;;;9.80;;
4521;SDS011;2273;48.464;11.926;2023-03-21T08:29:49;13.03;;;10.20;;
4521;SDS011;2273;48.464;11.926;2023-03-21T08:32:16;17.10;;;11.00;;
4521;SDS011;2273;48.464;11.926;2023-03-21T08:34:43;19.23;;;11.27;;
4521;SDS011;2273;48.464;11.926;2023-03-21T08:37:08;15.10;;;10.70;;
4521;SDS011;2273;48.464;11.926;2023-03-21T08:39:33;16.70;;;10.57;;
4521;SDS011;2273;48.464;11.926;2023-03-21T08:41:59;18.90;;;12.50;;
4521;SDS011;2273;48.464;11.926;2023-03-21T08:44:24;11.87;;;9.50;;
4521;SDS011;2273;48.464;11.926;2023-03-21T08:46:50;13.93;;;10.13;;
4521;SDS011;2273;48.464;11.926;2023-03-21T08:49:16;14.60;;;10.13;;
4521;SDS011;2273;48.464;11.926;2023-03-21T08:51:41;15.33;;;10.90;;
4521;SDS011;2273;48.464;11.926;2023-03-21T08:54:17;19.77;;;10.20;;
4521;SDS011;2273;48.464;11.926;2023-03-21T08:56:44;14.00;;;10.20;;
4521;SDS011;2273;48.464;11.926;2023-03-21T08:59:09;13.97;;;10.03;;
4521;SDS011;2273;48.464;11.926;2023-03-21T09:01:36;15.60;;;8.33;;
4521;SDS011;2273;48.464;11.926;2023-03-21T09:04:01;12.73;;;9.70;;
4521;SDS011;2273;48.464;11.926;2023-03-21T09:06:28;15.40;;;9.70;;
4521;SDS011;2273;48.464;11.926;2023-03-21T09:08:54;22.50;;;10.10;;
4521;SDS011;2273;48.464;11.926;2023-03-21T09:11:20;15.87;;;10.63;;
4521;SDS011;2273;48.464;11.926;2023-03-21T09:13:46;17.20;;;10.40;;
4521;SDS011;2273;48.464;11.926;2023-03-21T09:16:11;18.00;;;10.53;;
4521;SDS011;2273;48.464;11.926;2023-03-21T09:18:37;14.93;;;10.40;;
4521;SDS011;2273;48.464;11.926;2023-03-21T09:21:11;13.87;;;10.30;;
4521;SDS011;2273;48.464;11.926;2023-03-21T09:23:38;13.70;;;9.90;;
4521;SDS011;2273;48.464;11.926;2023-03-21T09:26:05;13.13;;;8.67;;
4521;SDS011;2273;48.464;11.926;2023-03-21T09:28:34;11.60;;;7.93;;
4521;SDS011;2273;48.464;11.926;2023-03-21T09:31:01;12.43;;;8.60;;
4521;SDS011;2273;48.464;11.926;2023-03-21T09:33:28;12.43;;;8.00;;
4521;SDS011;2273;48.464;11.926;2023-03-21T09:35:54;12.87;;;8.70;;
4521;SDS011;2273;48.464;11.926;2023-03-21T09:38:20;11.77;;;8.00;;
4521;SDS011;2273;48.464;11.926;2023-03-21T09:46:12;13.63;;;9.60;;
4521;SDS011;2273;48.464;11.926;2023-03-21T09:48:49;10.30;;;7.63;;
4521;SDS011;2273;48.464;11.926;2023-03-21T09:51:36;13.63;;;9.07;;
4521;SDS011;2273;48.464;11.926;2023-03-21T09:54:06;12.47;;;8.43;;
4521;SDS011;2273;48.464;11.926;2023-03-21T09:56:37;15.17;;;9.20;;
4521;SDS011;2273;48.464;11.926;2023-03-21T09:59:05;12.20;;;8.67;;
4521;SDS011;2273;48.464;11.926;2023-03-21T10:01:33;13.90;;;9.73;;
4521;SDS011;2273;48.464;11.926;2023-03-21T10:04:06;11.93;;;8.73;;
4521;SDS011;2273;48.464;11.926;2023-03-21T10:06:33;11.23;;;8.07;;
4521;SDS011;2273;48.464;11.926;2023-03-21T10:09:04;11.80;;;8.50;;
4521;SDS011;2273;48.464;11.926;2023-03-21T10:11:39;11.83;;;8.13;;
4521;SDS011;2273;48.464;11.926;2023-03-21T10:14:06;10.80;;;7.80;;
4521;SDS011;2273;48.464;11.926;2023-03-21T10:16:41;9.67;;;7.63;;
4521;SDS011;2273;48.464;11.926;2023-03-21T10:19:12;12.53;;;8.03;;
4521;SDS011;2273;48.464;11.926;2023-03-21T10:21:39;13.03;;;7.80;;
4521;SDS011;2273;48.464;11.926;2023-03-21T10:24:09;12.27;;;7.83;;
4521;SDS011;2273;48.464;11.926;2023-03-21T10:26:36;13.43;;;8.87;;
4521;SDS011;2273;48.464;11.926;2023-03-21T10:29:02;11.70;;;8.30;;
4521;SDS011;2273;48.464;11.926;2023-03-21T10:31:28;15.23;;;8.10;;
4521;SDS011;2273;48.464;11.926;2023-03-21T10:33:55;10.17;;;7.60;;
4521;SDS011;2273;48.464;11.926;2023-03-21T10:36:23;17.40;;;9.10;;
4521;SDS011;2273;48.464;11.926;2023-03-21T10:39:00;11.53;;;7.77;;
4521;SDS011;2273;48.464;11.926;2023-03-21T10:41:28;14.37;;;8.03;;
4521;SDS011;2273;48.464;11.926;2023-03-21T10:46:54;12.03;;;7.50;;
4521;SDS011;2273;48.464;11.926;2023-03-21T10:49:39;10.27;;;7.27;;
4521;SDS011;2273;48.464;11.926;2023-03-21T10:52:06;11.83;;;7.50;;
4521;SDS011;2273;48.464;11.926;2023-03-21T10:54:33;12.87;;;9.17;;
4521;SDS011;2273;48.464;11.926;2023-03-21T10:57:07;9.70;;;7.63;;
4521;SDS011;2273;48.464;11.926;2023-03-21T10:59:43;11.40;;;7.50;;
4521;SDS011;2273;48.464;11.926;2023-03-21T11:02:25;9.77;;;6.23;;
4521;SDS011;2273;48.464;11.926;2023-03-21T11:04:53;9.47;;;7.20;;
4521;SDS011;2273;48.464;11.926;2023-03-21T11:07:19;10.40;;;7.13;;
4521;SDS011;2273;48.464;11.926;2023-03-21T11:09:46;11.33;;;7.93;;
4521;SDS011;2273;48.464;11.926;2023-03-21T11:12:17;10.53;;;7.17;;
4521;SDS011;2273;48.464;11.926;2023-03-21T11:17:55;12.10;;;7.70;;
4521;SDS011;2273;48.464;11.926;2023-03-21T11:20:21;10.80;;;7.43;;
4521;SDS011;2273;48.464;11.926;2023-03-21T11:22:47;11.90;;;7.33;;
4521;SDS011;2273;48.464;11.926;2023-03-21T11:25:33;15.27;;;8.97;;
4521;SDS011;2273;48.464;11.926;2023-03-21T11:28:04;12.13;;;7.77;;
4521;SDS011;2273;48.464;11.926;2023-03-21T11:30:32;11.13;;;7.73;;
4521;SDS011;2273;48.464;11.926;2023-03-21T11:33:01;9.97;;;7.10;;
4521;SDS011;2273;48.464;11.926;2023-03-21T11:35:31;12.47;;;7.63;;
4521;SDS011;2273;48.464;11.926;2023-03-21T11:38:02;13.77;;;7.70;;
4521;SDS011;2273;48.464;11.926;2023-03-21T11:40:28;11.87;;;8.00;;
4521;SDS011;2273;48.464;11.926;2023-03-21T11:42:59;13.33;;;7.00;;
4521;SDS011;2273;48.464;11.926;2023-03-21T11:48:28;11.10;;;7.40;;
4521;SDS011;2273;48.464;11.926;2023-03-21T11:51:01;11.97;;;7.77;;
4521;SDS011;2273;48.464;11.926;2023-03-21T12:13:00;10.27;;;7.10;;
4521;SDS011;2273;48.464;11.926;2023-03-21T12:15:40;9.53;;;6.93;;
4521;SDS011;2273;48.464;11.926;2023-03-21T12:23:57;9.23;;;6.10;;
4521;SDS011;2273;48.464;11.926;2023-03-21T12:26:22;12.37;;;6.20;;
4521;SDS011;2273;48.464;11.926;2023-03-21T12:39:41;7.40;;;4.93;;
4521;SDS011;2273;48.464;11.926;2023-03-21T12:45:19;6.83;;;4.60;;
4521;SDS011;2273;48.464;11.926;2023-03-21T12:47:50;8.47;;;5.50;;
4521;SDS011;2273;48.464;11.926;2023-03-21T12:50:22;7.30;;;5.10;;
4521;SDS011;2273;48.464;11.926;2023-03-21T12:52:49;8.90;;;5.50;;
4521;SDS011;2273;48.464;11.926;2023-03-21T12:55:20;7.43;;;5.23;;
4521;SDS011;2273;48.464;11.926;2023-03-21T12:57:49;9.33;;;5.00;;
4521;SDS011;2273;48.464;11.926;2023-03-21T13:00:19;10.03;;;6.10;;
4521;SDS011;2273;48.464;11.926;2023-03-21T13:02:58;7.70;;;5.60;;
4521;SDS011;2273;48.464;11.926;2023-03-21T13:05:28;8.40;;;5.00;;
4521;SDS011;2273;48.464;11.926;2023-03-21T13:08:00;6.17;;;4.77;;
4521;SDS011;2273;48.464;11.926;2023-03-21T13:10:32;7.50;;;4.97;;
4521;SDS011;2273;48.464;11.926;2023-03-21T13:13:12;5.90;;;4.30;;
4521;SDS011;2273;48.464;11.926;2023-03-21T13:15:46;5.93;;;4.33;;
4521;SDS011;2273;48.464;11.926;2023-03-21T13:18:30;7.40;;;4.73;;
4521;SDS011;2273;48.464;11.926;2023-03-21T13:20:58;6.33;;;4.87;;
4521;SDS011;2273;48.464;11.926;2023-03-21T13:23:45;7.17;;;4.90;;
4521;SDS011;2273;48.464;11.926;2023-03-21T13:26:20;6.60;;;4.80;;
4521;SDS011;2273;48.464;11.926;2023-03-21T13:29:00;7.60;;;5.17;;
4521;SDS011;2273;48.464;11.926;2023-03-21T13:31:26;11.57;;;5.73;;
4521;SDS011;2273;48.464;11.926;2023-03-21T13:33:53;6.30;;;4.80;;
4521;SDS011;2273;48.464;11.926;2023-03-21T13:36:22;8.53;;;5.23;;
4521;SDS011;2273;48.464;11.926;2023-03-21T13:38:50;7.80;;;5.23;;
4521;SDS011;2273;48.464;11.926;2023-03-21T13:41:18;10.07;;;5.57;;
4521;SDS011;2273;48.464;11.926;2023-03-21T13:44:04;6.83;;;5.20;;
4521;SDS011;2273;48.464;11.926;2023-03-21T13:46:44;6.63;;;4.50;;
4521;SDS011;2273;48.464;11.926;2023-03-21T13:50:10;6.67;;;4.40;;
4521;SDS011;2273;48.464;11.926;2023-03-21T13:54:47;7.33;;;4.50;;
4521;SDS011;2273;48.464;11.926;2023-03-21T13:57:34;6.57;;;4.50;;
4521;SDS011;2273;48.464;11.926;2023-03-21T14:00:13;11.67;;;5.10;;
4521;SDS011;2273;48.464;11.926;2023-03-21T14:05:32;5.40;;;4.60;;
4521;SDS011;2273;48.464;11.926;2023-03-21T14:08:04;6.77;;;5.20;;
4521;SDS011;2273;48.464;11.926;2023-03-21T14:10:33;5.77;;;4.83;;
4521;SDS011;2273;48.464;11.926;2023-03-21T14:13:01;7.50;;;4.90;;
4521;SDS011;2273;48.464;11.926;2023-03-21T14:15:47;6.43;;;3.90;;
4521;SDS011;2273;48.464;11.926;2023-03-21T14:18:16;6.33;;;4.03;;
4521;SDS011;2273;48.464;11.926;2023-03-21T14:20:44;5.33;;;3.90;;
4521;SDS011;2273;48.464;11.926;2023-03-21T14:23:14;5.80;;;3.73;;
4521;SDS011;2273;48.464;11.926;2023-03-21T14:25:40;6.20;;;4.20;;
4521;SDS011;2273;48.464;11.926;2023-03-21T14:28:11;7.07;;;4.30;;
4521;SDS011;2273;48.464;11.926;2023-03-21T14:30:55;8.33;;;4.97;;
4521;SDS011;2273;48.464;11.926;2023-03-21T14:33:28;5.60;;;4.40;;
4521;SDS011;2273;48.464;11.926;2023-03-21T14:36:06;9.03;;;4.20;;
4521;SDS011;2273;48.464;11.926;2023-03-21T14:38:37;5.60;;;4.20;;
4521;SDS011;2273;48.464;11.926;2023-03-21T14:41:04;5.70;;;4.00;;
4521;SDS011;2273;48.464;11.926;2023-03-21T14:43:30;5.37;;;4.13;;
4521;SDS011;2273;48.464;11.926;2023-03-21T14:45:59;10.60;;;4.80;;
4521;SDS011;2273;48.464;11.926;2023-03-21T14:48:28;5.77;;;4.60;;
4521;SDS011;2273;48.464;11.926;2023-03-21T14:50:55;6.73;;;4.67;;
4521;SDS011;2273;48.464;11.926;2023-03-21T14:53:24;5.67;;;4.03;;
4521;SDS011;2273;48.464;11.926;2023-03-21T14:58:20;6.30;;;4.73;;
4521;SDS011;2273;48.464;11.926;2023-03-21T15:00:48;6.87;;;4.23;;
4521;SDS011;2273;48.464;11.926;2023-03-21T15:03:15;6.90;;;4.50;;
4521;SDS011;2273;48.464;11.926;2023-03-21T15:05:41;10.13;;;3.93;;
4521;SDS011;2273;48.464;11.926;2023-03-21T15:08:11;6.60;;;4.90;;
4521;SDS011;2273;48.464;11.926;2023-03-21T15:13:56;6.60;;;4.67;;
4521;SDS011;2273;48.464;11.926;2023-03-21T15:16:16;9.13;;;5.57;;
4521;SDS011;2273;48.464;11.926;2023-03-21T15:18:42;14.03;;;5.10;;
4521;SDS011;2273;48.464;11.926;2023-03-21T15:21:20;7.77;;;4.83;;
4521;SDS011;2273;48.464;11.926;2023-03-21T15:23:49;6.90;;;5.00;;
4521;SDS011;2273;48.464;11.926;2023-03-21T15:26:20;6.17;;;4.60;;
4521;SDS011;2273;48.464;11.926;2023-03-21T15:28:49;7.27;;;5.47;;
4521;SDS011;2273;48.464;11.926;2023-03-21T15:31:20;10.47;;;5.40;;
4521;SDS011;2273;48.464;11.926;2023-03-21T15:33:47;6.43;;;5.00;;
4521;SDS011;2273;48.464;11.926;2023-03-21T15:36:18;6.17;;;4.43;;
4521;SDS011;2273;48.464;11.926;2023-03-21T15:38:45;8.10;;;5.13;;
4521;SDS011;2273;48.464;11.926;2023-03-21T15:44:04;6.87;;;4.83;;
4521;SDS011;2273;48.464;11.926;2023-03-21T15:46:42;10.80;;;6.93;;
4521;SDS011;2273;48.464;11.926;2023-03-21T15:51:48;7.47;;;4.90;;
4521;SDS011;2273;48.464;11.926;2023-03-21T15:54:30;6.87;;;4.80;;
4521;SDS011;2273;48.464;11.926;2023-03-21T15:57:01;8.67;;;5.00;;
4521;SDS011;2273;48.464;11.926;2023-03-21T15:59:33;7.43;;;4.43;;
4521;SDS011;2273;48.464;11.926;2023-03-21T16:02:00;8.00;;;4.73;;
4521;SDS011;2273;48.464;11.926;2023-03-21T16:04:26;8.70;;;4.90;;
4521;SDS011;2273;48.464;11.926;2023-03-21T16:06:59;8.73;;;5.20;;
4521;SDS011;2273;48.464;11.926;2023-03-21T16:09:27;6.33;;;4.40;;
4521;SDS011;2273;48.464;11.926;2023-03-21T16:12:07;11.43;;;4.77;;
4521;SDS011;2273;48.464;11.926;2023-03-21T16:14:35;8.20;;;3.57;;
4521;SDS011;2273;48.464;11.926;2023-03-21T16:17:11;5.40;;;3.40;;
4521;SDS011;2273;48.464;11.926;2023-03-21T16:19:40;5.70;;;3.60;;
4521;SDS011;2273;48.464;11.926;2023-03-21T16:22:08;7.87;;;3.40;;
4521;SDS011;2273;48.464;11.926;2023-03-21T16:24:33;4.40;;;3.03;;
4521;SDS011;2273;48.464;11.926;2023-03-21T16:26:59;4.43;;;3.33;;
4521;SDS011;2273;48.464;11.926;2023-03-21T16:29:24;9.00;;;3.60;;
4521;SDS011;2273;48.464;11.926;2023-03-21T16:31:50;4.87;;;3.57;;
4521;SDS011;2273;48.464;11.926;2023-03-21T16:34:15;8.70;;;4.33;;
4521;SDS011;2273;48.464;11.926;2023-03-21T16:36:41;6.70;;;4.90;;
4521;SDS011;2273;48.464;11.926;2023-03-21T16:39:15;6.93;;;5.17;;
4521;SDS011;2273;48.464;11.926;2023-03-21T16:41:42;6.33;;;4.60;;
4521;SDS011;2273;48.464;11.926;2023-03-21T16:44:07;5.37;;;4.13;;
4521;SDS011;2273;48.464;11.926;2023-03-21T16:46:33;6.03;;;3.97;;
4521;SDS011;2273;48.464;11.926;2023-03-21T16:48:58;8.50;;;4.63;;
4521;SDS011;2273;48.464;11.926;2023-03-21T16:51:25;5.33;;;4.00;;